To NAV CANADA Home Page Login to a new session Search on AWWS site Disclaimer Vers la page française équivalente Tips FAQ What's new on the site To the Forecasts and Observations / NOTAM section To "File a Flight Plan" website Publications and other links Update of the User's profile FIC Telephone Numbers My Weather Data Folder Route Weather Data Regional Weather Data Local Weather Data To the Forecasts and Observations / NOTAM section
Request Generated 08/19/2022 at 02:07:23 UTC . Weather information available at that time is displayed.

METAR/TAF

BIG TROUT LAKE/ON    (show WxCam)

METAR CYTL 190200Z AUTO 03005KT 350V070 9SM CLR 21/16 A2988 RMK SLP125 DENSITY ALT 1600FT=
METAR CYTL 190100Z AUTO 03005KT 9SM FEW066 22/16 A2987 RMK SLP120 DENSITY ALT 1800FT=
METAR CYTL 190000Z AUTO 32002KT 9SM FEW120 21/19 A2985 RMK SLP116 DENSITY ALT 1700FT=

TAF CYTL 190140Z 1902/1914 03005KT P6SM SCT060 TEMPO 1902/1906
BKN060
FM190600 02012KT P6SM BKN050
FM190800 01012KT 6SM BR BKN007
RMK FCST BASED ON AUTO OBS. NXT FCST BY 190800Z
Your time UTC time
Weather data provided by Environment Canada and NAV CANADA